sensor_id;sensor_type;location;lat;lon;timestamp;pressure;altitude;pressure_sealevel;temperature;humidity
73558;BME280;61829;53.286;10.434;2023-05-24T00:01:20;101727.22;;;8.98;81.01
73558;BME280;61829;53.286;10.434;2023-05-24T00:03:51;101730.53;;;8.92;80.48
73558;BME280;61829;53.286;10.434;2023-05-24T00:06:20;101723.22;;;8.84;81.60
73558;BME280;61829;53.286;10.434;2023-05-24T00:08:46;101728.06;;;8.81;81.28
73558;BME280;61829;53.286;10.434;2023-05-24T00:11:12;101728.63;;;8.74;81.50
73558;BME280;61829;53.286;10.434;2023-05-24T00:13:38;101729.09;;;8.70;81.81
73558;BME280;61829;53.286;10.434;2023-05-24T00:16:04;101732.94;;;8.67;82.16
73558;BME280;61829;53.286;10.434;2023-05-24T00:18:32;101734.06;;;8.65;82.16
73558;BME280;61829;53.286;10.434;2023-05-24T00:20:58;101727.88;;;8.64;82.17
73558;BME280;61829;53.286;10.434;2023-05-24T00:23:25;101725.31;;;8.63;82.59
73558;BME280;61829;53.286;10.434;2023-05-24T00:25:51;101732.69;;;8.61;82.48
73558;BME280;61829;53.286;10.434;2023-05-24T00:28:17;101728.16;;;8.61;82.57
73558;BME280;61829;53.286;10.434;2023-05-24T00:30:43;101717.41;;;8.61;83.14
73558;BME280;61829;53.286;10.434;2023-05-24T00:33:09;101715.56;;;8.62;82.17
73558;BME280;61829;53.286;10.434;2023-05-24T00:35:35;101717.41;;;8.61;82.45
73558;BME280;61829;53.286;10.434;2023-05-24T00:38:01;101714.44;;;8.64;83.11
73558;BME280;61829;53.286;10.434;2023-05-24T00:40:27;101710.44;;;8.68;83.49
73558;BME280;61829;53.286;10.434;2023-05-24T00:42:53;101703.06;;;8.70;83.54
73558;BME280;61829;53.286;10.434;2023-05-24T00:45:19;101705.47;;;8.73;83.21
73558;BME280;61829;53.286;10.434;2023-05-24T00:47:45;101704.63;;;8.73;83.17
73558;BME280;61829;53.286;10.434;2023-05-24T00:50:11;101699.38;;;8.71;83.10
73558;BME280;61829;53.286;10.434;2023-05-24T00:52:39;101694.72;;;8.73;82.96
73558;BME280;61829;53.286;10.434;2023-05-24T00:55:07;101703.47;;;8.75;83.15
73558;BME280;61829;53.286;10.434;2023-05-24T00:57:35;101700.63;;;8.77;82.90
73558;BME280;61829;53.286;10.434;2023-05-24T01:00:03;101700.31;;;8.80;83.33
73558;BME280;61829;53.286;10.434;2023-05-24T01:02:29;101705.53;;;8.82;83.32
73558;BME280;61829;53.286;10.434;2023-05-24T01:04:57;101703.25;;;8.87;82.77
73558;BME280;61829;53.286;10.434;2023-05-24T01:13:57;101691.81;;;8.85;82.22
73558;BME280;61829;53.286;10.434;2023-05-24T01:16:35;101691.66;;;8.86;82.54
73558;BME280;61829;53.286;10.434;2023-05-24T01:19:34;101699.03;;;8.84;82.58
73558;BME280;61829;53.286;10.434;2023-05-24T01:27:16;101695.72;;;8.90;82.72
73558;BME280;61829;53.286;10.434;2023-05-24T01:29:42;101689.50;;;8.90;82.32
73558;BME280;61829;53.286;10.434;2023-05-24T01:32:08;101686.50;;;8.93;81.92
73558;BME280;61829;53.286;10.434;2023-05-24T01:34:34;101693.75;;;8.92;82.46
73558;BME280;61829;53.286;10.434;2023-05-24T01:37:00;101688.38;;;8.92;82.27
73558;BME280;61829;53.286;10.434;2023-05-24T01:39:28;101684.53;;;8.95;82.05
73558;BME280;61829;53.286;10.434;2023-05-24T01:42:17;101688.75;;;8.97;82.63
73558;BME280;61829;53.286;10.434;2023-05-24T01:45:13;101682.50;;;8.97;82.33
73558;BME280;61829;53.286;10.434;2023-05-24T01:47:46;101690.44;;;8.98;82.35
73558;BME280;61829;53.286;10.434;2023-05-24T01:50:23;101691.97;;;9.01;82.80
73558;BME280;61829;53.286;10.434;2023-05-24T01:52:51;101684.59;;;9.03;81.90
73558;BME280;61829;53.286;10.434;2023-05-24T01:55:18;101678.06;;;9.06;82.47
73558;BME280;61829;53.286;10.434;2023-05-24T01:57:47;101678.91;;;9.06;82.69
73558;BME280;61829;53.286;10.434;2023-05-24T02:00:17;101685.84;;;9.09;82.26
73558;BME280;61829;53.286;10.434;2023-05-24T02:02:44;101675.09;;;9.09;82.38
73558;BME280;61829;53.286;10.434;2023-05-24T02:05:10;101675.75;;;9.11;82.49
73558;BME280;61829;53.286;10.434;2023-05-24T02:07:36;101675.75;;;9.11;82.01
73558;BME280;61829;53.286;10.434;2023-05-24T02:10:03;101669.41;;;9.12;83.24
73558;BME280;61829;53.286;10.434;2023-05-24T02:12:29;101678.31;;;9.12;82.87
73558;BME280;61829;53.286;10.434;2023-05-24T02:14:55;101667.38;;;9.14;83.16
73558;BME280;61829;53.286;10.434;2023-05-24T02:17:21;101673.91;;;9.11;82.44
73558;BME280;61829;53.286;10.434;2023-05-24T02:19:50;101673.06;;;9.11;82.34
73558;BME280;61829;53.286;10.434;2023-05-24T02:22:16;101673.22;;;9.09;83.40
73558;BME280;61829;53.286;10.434;2023-05-24T02:24:41;101674.78;;;9.12;83.51
73558;BME280;61829;53.286;10.434;2023-05-24T02:27:08;101672.75;;;9.14;83.43
73558;BME280;61829;53.286;10.434;2023-05-24T02:29:34;101669.22;;;9.13;82.56
73558;BME280;61829;53.286;10.434;2023-05-24T02:32:00;101673.75;;;9.13;83.13
73558;BME280;61829;53.286;10.434;2023-05-24T02:34:26;101664.53;;;9.15;83.46
73558;BME280;61829;53.286;10.434;2023-05-24T02:36:52;101664.69;;;9.14;83.29
73558;BME280;61829;53.286;10.434;2023-05-24T02:39:21;101663.00;;;9.13;82.50
73558;BME280;61829;53.286;10.434;2023-05-24T02:41:48;101665.69;;;9.13;83.40
73558;BME280;61829;53.286;10.434;2023-05-24T02:44:14;101671.06;;;9.13;83.14
73558;BME280;61829;53.286;10.434;2023-05-24T02:46:40;101676.31;;;9.14;83.51
73558;BME280;61829;53.286;10.434;2023-05-24T02:49:06;101677.97;;;9.15;83.33
73558;BME280;61829;53.286;10.434;2023-05-24T02:51:32;101676.31;;;9.14;83.10
73558;BME280;61829;53.286;10.434;2023-05-24T02:53:57;101671.78;;;9.15;82.63
73558;BME280;61829;53.286;10.434;2023-05-24T02:56:23;101672.75;;;9.14;82.82
73558;BME280;61829;53.286;10.434;2023-05-24T02:58:50;101664.69;;;9.14;83.04
73558;BME280;61829;53.286;10.434;2023-05-24T03:01:18;101667.53;;;9.12;82.57
73558;BME280;61829;53.286;10.434;2023-05-24T03:03:45;101671.38;;;9.10;82.98
73558;BME280;61829;53.286;10.434;2023-05-24T03:06:11;101667.84;;;9.09;83.33
73558;BME280;61829;53.286;10.434;2023-05-24T03:08:39;101675.91;;;9.09;83.50
73558;BME280;61829;53.286;10.434;2023-05-24T03:11:05;101668.00;;;9.08;83.13
73558;BME280;61829;53.286;10.434;2023-05-24T03:13:31;101664.59;;;9.06;83.61
73558;BME280;61829;53.286;10.434;2023-05-24T03:15:58;101668.16;;;9.06;84.02
73558;BME280;61829;53.286;10.434;2023-05-24T03:18:23;101668.00;;;9.08;83.72
73558;BME280;61829;53.286;10.434;2023-05-24T03:20:49;101671.53;;;9.08;84.39
73558;BME280;61829;53.286;10.434;2023-05-24T03:23:15;101670.38;;;9.11;84.05
73558;BME280;61829;53.286;10.434;2023-05-24T03:25:41;101668.38;;;9.13;83.78
73558;BME280;61829;53.286;10.434;2023-05-24T03:28:07;101666.69;;;9.12;83.88
73558;BME280;61829;53.286;10.434;2023-05-24T03:30:33;101665.69;;;9.13;83.96
73558;BME280;61829;53.286;10.434;2023-05-24T03:32:58;101663.00;;;9.13;84.36
73558;BME280;61829;53.286;10.434;2023-05-24T03:35:24;101665.16;;;9.09;84.45
73558;BME280;61829;53.286;10.434;2023-05-24T03:37:51;101664.84;;;9.12;85.39
73558;BME280;61829;53.286;10.434;2023-05-24T03:40:18;101670.06;;;9.14;84.36
73558;BME280;61829;53.286;10.434;2023-05-24T03:42:44;101672.59;;;9.15;84.96
73558;BME280;61829;53.286;10.434;2023-05-24T03:45:10;101666.91;;;9.18;85.19
73558;BME280;61829;53.286;10.434;2023-05-24T03:47:35;101668.59;;;9.19;84.33
73558;BME280;61829;53.286;10.434;2023-05-24T03:50:01;101674.84;;;9.20;85.00
73558;BME280;61829;53.286;10.434;2023-05-24T03:52:27;101672.81;;;9.22;84.55
73558;BME280;61829;53.286;10.434;2023-05-24T03:54:53;101682.75;;;9.21;85.14
73558;BME280;61829;53.286;10.434;2023-05-24T03:57:19;101681.59;;;9.24;86.47
73558;BME280;61829;53.286;10.434;2023-05-24T03:59:45;101693.72;;;9.28;86.15
73558;BME280;61829;53.286;10.434;2023-05-24T04:02:11;101686.34;;;9.30;85.77
73558;BME280;61829;53.286;10.434;2023-05-24T04:04:37;101692.41;;;9.32;85.92
73558;BME280;61829;53.286;10.434;2023-05-24T04:07:02;101697.09;;;9.30;86.04
73558;BME280;61829;53.286;10.434;2023-05-24T04:09:38;101693.72;;;9.28;86.17
73558;BME280;61829;53.286;10.434;2023-05-24T04:12:05;101694.59;;;9.29;85.39
73558;BME280;61829;53.286;10.434;2023-05-24T04:14:31;101701.47;;;9.31;85.24
73558;BME280;61829;53.286;10.434;2023-05-24T04:16:57;101703.19;;;9.32;85.36
73558;BME280;61829;53.286;10.434;2023-05-24T04:19:23;101705.56;;;9.35;85.32
73558;BME280;61829;53.286;10.434;2023-05-24T04:21:49;101699.34;;;9.35;85.00
73558;BME280;61829;53.286;10.434;2023-05-24T04:24:15;101698.19;;;9.37;84.40
73558;BME280;61829;53.286;10.434;2023-05-24T04:26:41;101703.56;;;9.37;84.47
73558;BME280;61829;53.286;10.434;2023-05-24T04:29:06;101702.41;;;9.40;85.29
73558;BME280;61829;53.286;10.434;2023-05-24T04:31:33;101704.94;;;9.41;84.89
73558;BME280;61829;53.286;10.434;2023-05-24T04:33:59;101707.78;;;9.40;83.91
73558;BME280;61829;53.286;10.434;2023-05-24T04:36:34;101709.47;;;9.41;84.68
73558;BME280;61829;53.286;10.434;2023-05-24T04:39:01;101703.25;;;9.40;84.40
73558;BME280;61829;53.286;10.434;2023-05-24T04:41:29;101712.84;;;9.43;85.31
73558;BME280;61829;53.286;10.434;2023-05-24T04:44:01;101719.06;;;9.43;84.80
73558;BME280;61829;53.286;10.434;2023-05-24T04:46:28;101717.09;;;9.46;84.81
73558;BME280;61829;53.286;10.434;2023-05-24T04:48:54;101712.38;;;9.48;84.29
73558;BME280;61829;53.286;10.434;2023-05-24T04:51:21;101717.59;;;9.49;84.78
73558;BME280;61829;53.286;10.434;2023-05-24T04:53:47;101720.13;;;9.51;84.48
73558;BME280;61829;53.286;10.434;2023-05-24T04:56:15;101721.66;;;9.53;85.23
73558;BME280;61829;53.286;10.434;2023-05-24T04:58:42;101730.44;;;9.55;84.86
73558;BME280;61829;53.286;10.434;2023-05-24T05:01:07;101725.88;;;9.56;84.78
73558;BME280;61829;53.286;10.434;2023-05-24T05:03:33;101734.50;;;9.59;85.23
73558;BME280;61829;53.286;10.434;2023-05-24T05:05:59;101735.88;;;9.63;84.84
73558;BME280;61829;53.286;10.434;2023-05-24T05:08:25;101730.66;;;9.62;85.11
73558;BME280;61829;53.286;10.434;2023-05-24T05:10:51;101729.66;;;9.63;85.42
73558;BME280;61829;53.286;10.434;2023-05-24T05:13:17;101732.88;;;9.66;85.45
73558;BME280;61829;53.286;10.434;2023-05-24T05:15:43;101732.88;;;9.66;85.26
73558;BME280;61829;53.286;10.434;2023-05-24T05:18:09;101731.88;;;9.67;86.06
73558;BME280;61829;53.286;10.434;2023-05-24T05:20:35;101735.56;;;9.66;86.53
73558;BME280;61829;53.286;10.434;2023-05-24T05:23:01;101733.56;;;9.69;86.12
73558;BME280;61829;53.286;10.434;2023-05-24T05:25:27;101737.94;;;9.70;85.87
73558;BME280;61829;53.286;10.434;2023-05-24T05:27:53;101733.25;;;9.72;85.86
73558;BME280;61829;53.286;10.434;2023-05-24T05:30:18;101740.31;;;9.73;85.90
73558;BME280;61829;53.286;10.434;2023-05-24T05:32:44;101738.31;;;9.75;86.12
73558;BME280;61829;53.286;10.434;2023-05-24T05:35:10;101733.91;;;9.74;85.83
73558;BME280;61829;53.286;10.434;2023-05-24T05:37:36;101738.00;;;9.78;86.11
73558;BME280;61829;53.286;10.434;2023-05-24T05:40:02;101743.22;;;9.79;86.60
73558;BME280;61829;53.286;10.434;2023-05-24T05:42:29;101736.84;;;9.80;86.33
73558;BME280;61829;53.286;10.434;2023-05-24T05:44:55;101741.91;;;9.83;87.07
73558;BME280;61829;53.286;10.434;2023-05-24T05:47:22;101735.38;;;9.86;86.21
73558;BME280;61829;53.286;10.434;2023-05-24T05:49:47;101742.81;;;9.92;86.94
73558;BME280;61829;53.286;10.434;2023-05-24T05:52:13;101743.00;;;9.99;87.07
73558;BME280;61829;53.286;10.434;2023-05-24T05:54:39;101741.84;;;10.01;87.20
73558;BME280;61829;53.286;10.434;2023-05-24T05:57:05;101752.53;;;10.11;86.60
73558;BME280;61829;53.286;10.434;2023-05-24T05:59:34;101747.34;;;10.18;85.82
73558;BME280;61829;53.286;10.434;2023-05-24T06:02:02;101748.25;;;10.26;85.87
73558;BME280;61829;53.286;10.434;2023-05-24T06:04:28;101756.41;;;10.34;85.60
73558;BME280;61829;53.286;10.434;2023-05-24T06:06:54;101757.47;;;10.42;85.22
73558;BME280;61829;53.286;10.434;2023-05-24T06:09:20;101761.50;;;10.46;85.33
73558;BME280;61829;53.286;10.434;2023-05-24T06:11:46;101762.72;;;10.51;84.98
73558;BME280;61829;53.286;10.434;2023-05-24T06:14:12;101761.53;;;10.54;84.41
73558;BME280;61829;53.286;10.434;2023-05-24T06:16:44;101763.25;;;10.63;85.48
73558;BME280;61829;53.286;10.434;2023-05-24T06:19:11;101766.00;;;10.71;85.32
73558;BME280;61829;53.286;10.434;2023-05-24T06:21:39;101767.34;;;10.75;85.11
73558;BME280;61829;53.286;10.434;2023-05-24T06:24:11;101764.50;;;10.77;85.50
73558;BME280;61829;53.286;10.434;2023-05-24T06:26:37;101764.84;;;10.82;85.65
73558;BME280;61829;53.286;10.434;2023-05-24T06:29:06;101771.59;;;10.86;85.42
73558;BME280;61829;53.286;10.434;2023-05-24T06:31:33;101777.16;;;10.85;84.32
73558;BME280;61829;53.286;10.434;2023-05-24T06:33:59;101785.91;;;10.87;85.18
73558;BME280;61829;53.286;10.434;2023-05-24T06:36:47;101790.31;;;10.88;84.59
73558;BME280;61829;53.286;10.434;2023-05-24T06:39:14;101782.38;;;10.86;84.22
73558;BME280;61829;53.286;10.434;2023-05-24T06:41:40;101792.84;;;10.89;84.91
73558;BME280;61829;53.286;10.434;2023-05-24T06:44:07;101783.94;;;10.97;84.74
73558;BME280;61829;53.286;10.434;2023-05-24T06:46:34;101792.06;;;11.05;84.52
73558;BME280;61829;53.286;10.434;2023-05-24T06:49:00;101793.09;;;11.04;84.54
73558;BME280;61829;53.286;10.434;2023-05-24T06:51:26;101792.41;;;11.02;84.33
73558;BME280;61829;53.286;10.434;2023-05-24T06:53:52;101798.28;;;11.06;84.87
73558;BME280;61829;53.286;10.434;2023-05-24T06:56:18;101804.19;;;11.09;85.08
73558;BME280;61829;53.286;10.434;2023-05-24T06:58:44;101803.03;;;11.12;84.35
73558;BME280;61829;53.286;10.434;2023-05-24T07:01:10;101813.50;;;11.15;84.18
73558;BME280;61829;53.286;10.434;2023-05-24T07:03:36;101812.31;;;11.17;84.09
73558;BME280;61829;53.286;10.434;2023-05-24T07:06:02;101815.19;;;11.16;83.74
73558;BME280;61829;53.286;10.434;2023-05-24T07:08:28;101820.75;;;11.14;84.54
73558;BME280;61829;53.286;10.434;2023-05-24T07:10:54;101817.34;;;11.12;84.81
73558;BME280;61829;53.286;10.434;2023-05-24T07:13:20;101819.22;;;11.12;85.04
73558;BME280;61829;53.286;10.434;2023-05-24T07:15:47;101831.53;;;11.14;84.78
73558;BME280;61829;53.286;10.434;2023-05-24T07:18:13;101832.03;;;11.18;85.57
73558;BME280;61829;53.286;10.434;2023-05-24T07:20:39;101829.53;;;11.16;85.38
73558;BME280;61829;53.286;10.434;2023-05-24T07:23:04;101832.38;;;11.15;86.34
73558;BME280;61829;53.286;10.434;2023-05-24T07:25:32;101834.06;;;11.08;86.80
73558;BME280;61829;53.286;10.434;2023-05-24T07:28:00;101833.22;;;11.07;88.05
73558;BME280;61829;53.286;10.434;2023-05-24T07:30:26;101844.34;;;11.04;87.99
73558;BME280;61829;53.286;10.434;2023-05-24T07:32:52;101850.38;;;11.06;88.34
73558;BME280;61829;53.286;10.434;2023-05-24T07:35:18;101846.00;;;11.05;89.04
73558;BME280;61829;53.286;10.434;2023-05-24T07:37:43;101847.69;;;11.06;89.49
73558;BME280;61829;53.286;10.434;2023-05-24T07:40:10;101843.81;;;11.09;89.65
73558;BME280;61829;53.286;10.434;2023-05-24T07:42:40;101844.66;;;11.09;89.49
73558;BME280;61829;53.286;10.434;2023-05-24T07:45:07;101846.38;;;11.10;89.15
73558;BME280;61829;53.286;10.434;2023-05-24T07:47:33;101847.22;;;11.11;89.31
73558;BME280;61829;53.286;10.434;2023-05-24T07:49:59;101842.97;;;11.08;88.99
73558;BME280;61829;53.286;10.434;2023-05-24T07:52:25;101853.09;;;11.06;89.08
73558;BME280;61829;53.286;10.434;2023-05-24T07:54:51;101854.28;;;11.12;89.19
73558;BME280;61829;53.286;10.434;2023-05-24T07:57:19;101848.75;;;11.21;90.07
73558;BME280;61829;53.286;10.434;2023-05-24T07:59:45;101848.09;;;11.28;90.06
73558;BME280;61829;53.286;10.434;2023-05-24T08:02:11;101842.38;;;11.31;89.67
73558;BME280;61829;53.286;10.434;2023-05-24T08:04:42;101852.19;;;11.40;89.32
73558;BME280;61829;53.286;10.434;2023-05-24T08:07:11;101848.66;;;11.48;88.58
73558;BME280;61829;53.286;10.434;2023-05-24T08:09:37;101855.25;;;11.53;88.95
73558;BME280;61829;53.286;10.434;2023-05-24T08:12:04;101851.19;;;11.57;88.69
73558;BME280;61829;53.286;10.434;2023-05-24T08:14:31;101848.84;;;11.62;88.27
73558;BME280;61829;53.286;10.434;2023-05-24T08:16:57;101853.06;;;11.65;87.82
73558;BME280;61829;53.286;10.434;2023-05-24T08:19:26;101856.97;;;11.71;87.52
73558;BME280;61829;53.286;10.434;2023-05-24T08:21:53;101865.91;;;11.79;86.99
73558;BME280;61829;53.286;10.434;2023-05-24T08:24:21;101859.88;;;11.85;86.19
73558;BME280;61829;53.286;10.434;2023-05-24T08:26:47;101857.34;;;11.92;86.22
73558;BME280;61829;53.286;10.434;2023-05-24T08:29:14;101865.28;;;12.02;85.50
73558;BME280;61829;53.286;10.434;2023-05-24T08:31:41;101865.97;;;12.12;84.51
73558;BME280;61829;53.286;10.434;2023-05-24T08:34:07;101869.84;;;12.18;83.82
73558;BME280;61829;53.286;10.434;2023-05-24T08:36:33;101877.94;;;12.26;83.30
73558;BME280;61829;53.286;10.434;2023-05-24T08:38:59;101875.56;;;12.31;83.28
73558;BME280;61829;53.286;10.434;2023-05-24T08:41:25;101876.91;;;12.35;82.66
73558;BME280;61829;53.286;10.434;2023-05-24T08:43:52;101877.91;;;12.42;83.07
73558;BME280;61829;53.286;10.434;2023-05-24T08:46:18;101878.94;;;12.49;82.73
73558;BME280;61829;53.286;10.434;2023-05-24T08:48:46;101886.00;;;12.58;82.22
73558;BME280;61829;53.286;10.434;2023-05-24T08:51:15;101878.72;;;12.67;82.26
73558;BME280;61829;53.286;10.434;2023-05-24T08:53:43;101879.19;;;12.79;81.55
73558;BME280;61829;53.286;10.434;2023-05-24T08:56:16;101887.44;;;12.94;80.69
73558;BME280;61829;53.286;10.434;2023-05-24T08:58:43;101889.41;;;13.08;79.43
73558;BME280;61829;53.286;10.434;2023-05-24T09:01:10;101886.13;;;13.21;78.79
73558;BME280;61829;53.286;10.434;2023-05-24T09:03:39;101883.88;;;13.41;77.75
73558;BME280;61829;53.286;10.434;2023-05-24T09:06:06;101888.84;;;13.60;77.73
73558;BME280;61829;53.286;10.434;2023-05-24T09:08:35;101896.84;;;13.77;76.17
73558;BME280;61829;53.286;10.434;2023-05-24T09:11:04;101878.31;;;13.88;75.82
73558;BME280;61829;53.286;10.434;2023-05-24T09:13:32;101883.31;;;14.00;75.10
73558;BME280;61829;53.286;10.434;2023-05-24T09:15:59;101884.34;;;13.99;73.15
73558;BME280;61829;53.286;10.434;2023-05-24T09:18:25;101885.53;;;13.96;74.00
73558;BME280;61829;53.286;10.434;2023-05-24T09:20:51;101897.38;;;13.95;75.47
73558;BME280;61829;53.286;10.434;2023-05-24T09:23:17;101889.75;;;13.99;75.02
73558;BME280;61829;53.286;10.434;2023-05-24T09:25:44;101886.84;;;14.00;74.99
73558;BME280;61829;53.286;10.434;2023-05-24T09:28:15;101896.38;;;13.96;75.16
73558;BME280;61829;53.286;10.434;2023-05-24T09:30:42;101904.69;;;13.95;74.82
73558;BME280;61829;53.286;10.434;2023-05-24T09:33:09;101906.72;;;13.92;75.18
73558;BME280;61829;53.286;10.434;2023-05-24T09:35:35;101901.50;;;13.91;75.70
73558;BME280;61829;53.286;10.434;2023-05-24T09:38:01;101912.88;;;13.86;75.84
73558;BME280;61829;53.286;10.434;2023-05-24T09:40:28;101911.19;;;13.85;77.32
73558;BME280;61829;53.286;10.434;2023-05-24T09:43:08;101910.53;;;13.83;78.07
73558;BME280;61829;53.286;10.434;2023-05-24T09:48:10;101916.78;;;13.84;79.39
73558;BME280;61829;53.286;10.434;2023-05-24T09:50:36;101919.69;;;13.82;79.52
73558;BME280;61829;53.286;10.434;2023-05-24T09:53:02;101915.47;;;13.80;80.24
73558;BME280;61829;53.286;10.434;2023-05-24T09:55:28;101917.03;;;13.74;79.92
73558;BME280;61829;53.286;10.434;2023-05-24T09:58:07;101917.38;;;13.71;79.88
73558;BME280;61829;53.286;10.434;2023-05-24T10:00:42;101922.47;;;13.66;79.90
73558;BME280;61829;53.286;10.434;2023-05-24T10:03:09;101913.03;;;13.62;80.46
73558;BME280;61829;53.286;10.434;2023-05-24T10:05:36;101921.53;;;13.59;80.22
73558;BME280;61829;53.286;10.434;2023-05-24T10:08:03;101910.03;;;13.57;81.41
73558;BME280;61829;53.286;10.434;2023-05-24T10:10:33;101926.31;;;13.48;82.11
73558;BME280;61829;53.286;10.434;2023-05-24T10:13:00;101920.56;;;13.43;82.13
73558;BME280;61829;53.286;10.434;2023-05-24T10:15:27;101921.94;;;13.47;82.19
73558;BME280;61829;53.286;10.434;2023-05-24T10:17:54;101915.97;;;13.52;82.28
73558;BME280;61829;53.286;10.434;2023-05-24T10:20:23;101912.19;;;13.61;81.81
73558;BME280;61829;53.286;10.434;2023-05-24T10:22:58;101918.34;;;13.78;82.30
73558;BME280;61829;53.286;10.434;2023-05-24T10:25:27;101911.81;;;13.96;82.62
73558;BME280;61829;53.286;10.434;2023-05-24T10:27:56;101920.56;;;14.21;81.33
73558;BME280;61829;53.286;10.434;2023-05-24T10:33:20;101912.66;;;14.57;76.62
73558;BME280;61829;53.286;10.434;2023-05-24T10:35:47;101925.03;;;14.74;77.65
73558;BME280;61829;53.286;10.434;2023-05-24T10:38:14;101922.50;;;14.88;76.31
73558;BME280;61829;53.286;10.434;2023-05-24T10:40:40;101928.78;;;15.03;74.71
73558;BME280;61829;53.286;10.434;2023-05-24T10:43:07;101935.22;;;15.17;73.31
73558;BME280;61829;53.286;10.434;2023-05-24T10:45:36;101933.16;;;15.34;71.92
73558;BME280;61829;53.286;10.434;2023-05-24T10:50:38;101927.72;;;15.48;69.64
73558;BME280;61829;53.286;10.434;2023-05-24T10:53:25;101931.63;;;15.61;71.15
73558;BME280;61829;53.286;10.434;2023-05-24T10:58:18;101931.16;;;15.93;69.95
73558;BME280;61829;53.286;10.434;2023-05-24T11:00:44;101927.88;;;15.98;67.72
73558;BME280;61829;53.286;10.434;2023-05-24T11:03:11;101929.53;;;15.99;67.20
73558;BME280;61829;53.286;10.434;2023-05-24T11:08:39;101931.03;;;16.02;67.77
73558;BME280;61829;53.286;10.434;2023-05-24T11:11:09;101924.84;;;16.08;67.83
73558;BME280;61829;53.286;10.434;2023-05-24T11:13:37;101925.22;;;16.26;67.89
73558;BME280;61829;53.286;10.434;2023-05-24T11:16:06;101926.69;;;16.50;66.86
73558;BME280;61829;53.286;10.434;2023-05-24T11:18:32;101918.28;;;16.45;64.78
73558;BME280;61829;53.286;10.434;2023-05-24T11:21:04;101920.22;;;16.30;66.19
73558;BME280;61829;53.286;10.434;2023-05-24T11:23:31;101934.06;;;16.13;65.44
73558;BME280;61829;53.286;10.434;2023-05-24T11:25:57;101923.38;;;16.05;65.83
73558;BME280;61829;53.286;10.434;2023-05-24T11:28:24;101930.03;;;16.03;66.39
73558;BME280;61829;53.286;10.434;2023-05-24T11:30:50;101929.19;;;16.02;65.06
73558;BME280;61829;53.286;10.434;2023-05-24T11:33:17;101920.75;;;15.97;66.40
73558;BME280;61829;53.286;10.434;2023-05-24T11:35:50;101924.97;;;16.00;66.68
73558;BME280;61829;53.286;10.434;2023-05-24T11:38:17;101918.94;;;16.04;66.74
73558;BME280;61829;53.286;10.434;2023-05-24T11:40:46;101920.47;;;16.13;67.03
73558;BME280;61829;53.286;10.434;2023-05-24T11:43:15;101923.72;;;16.24;66.70
73558;BME280;61829;53.286;10.434;2023-05-24T11:45:42;101927.50;;;16.23;65.88
73558;BME280;61829;53.286;10.434;2023-05-24T11:48:09;101924.81;;;16.29;65.90
73558;BME280;61829;53.286;10.434;2023-05-24T11:50:42;101912.19;;;16.43;64.83
73558;BME280;61829;53.286;10.434;2023-05-24T11:53:12;101929.09;;;16.67;64.79
73558;BME280;61829;53.286;10.434;2023-05-24T11:55:39;101913.25;;;17.05;65.57
73558;BME280;61829;53.286;10.434;2023-05-24T12:00:41;101928.06;;;17.37;59.16
73558;BME280;61829;53.286;10.434;2023-05-24T12:03:08;101925.09;;;17.25;58.71
73558;BME280;61829;53.286;10.434;2023-05-24T12:05:35;101922.78;;;17.29;59.65
73558;BME280;61829;53.286;10.434;2023-05-24T12:08:04;101920.53;;;17.39;59.47
73558;BME280;61829;53.286;10.434;2023-05-24T12:10:34;101922.69;;;17.50;61.04
73558;BME280;61829;53.286;10.434;2023-05-24T12:13:04;101928.84;;;17.72;60.81
73558;BME280;61829;53.286;10.434;2023-05-24T12:15:32;101923.44;;;17.79;59.94
73558;BME280;61829;53.286;10.434;2023-05-24T12:17:58;101933.53;;;17.92;60.01
73558;BME280;61829;53.286;10.434;2023-05-24T12:20:28;101924.50;;;17.91;57.94
73558;BME280;61829;53.286;10.434;2023-05-24T12:22:55;101934.91;;;17.74;58.25
73558;BME280;61829;53.286;10.434;2023-05-24T12:25:22;101940.84;;;17.78;59.66
73558;BME280;61829;53.286;10.434;2023-05-24T12:27:52;101926.38;;;17.84;59.41
73558;BME280;61829;53.286;10.434;2023-05-24T12:30:24;101936.25;;;17.92;58.45
73558;BME280;61829;53.286;10.434;2023-05-24T12:32:50;101937.72;;;17.94;58.27
73558;BME280;61829;53.286;10.434;2023-05-24T12:35:21;101934.56;;;17.84;57.78
73558;BME280;61829;53.286;10.434;2023-05-24T12:37:48;101942.66;;;17.71;58.26
73558;BME280;61829;53.286;10.434;2023-05-24T12:42:44;101942.59;;;17.58;57.58
73558;BME280;61829;53.286;10.434;2023-05-24T12:45:10;101944.91;;;17.54;58.23
73558;BME280;61829;53.286;10.434;2023-05-24T12:47:37;101944.53;;;17.64;58.70
73558;BME280;61829;53.286;10.434;2023-05-24T12:50:03;101944.94;;;17.61;58.84
73558;BME280;61829;53.286;10.434;2023-05-24T12:52:29;101937.53;;;17.41;58.84
73558;BME280;61829;53.286;10.434;2023-05-24T12:54:55;101931.03;;;17.42;58.83
73558;BME280;61829;53.286;10.434;2023-05-24T12:57:21;101933.09;;;17.40;57.86
73558;BME280;61829;53.286;10.434;2023-05-24T12:59:47;101930.53;;;17.25;59.48
73558;BME280;61829;53.286;10.434;2023-05-24T13:05:42;101938.41;;;17.07;59.41
73558;BME280;61829;53.286;10.434;2023-05-24T13:08:08;101934.63;;;17.01;59.75
73558;BME280;61829;53.286;10.434;2023-05-24T13:10:34;101940.41;;;16.92;59.16
73558;BME280;61829;53.286;10.434;2023-05-24T13:13:00;101942.44;;;16.83;58.47
73558;BME280;61829;53.286;10.434;2023-05-24T13:15:26;101946.25;;;16.89;58.87
73558;BME280;61829;53.286;10.434;2023-05-24T13:17:52;101949.91;;;17.02;58.74
73558;BME280;61829;53.286;10.434;2023-05-24T13:20:18;101945.56;;;17.15;58.38